sensor_id;sensor_type;location;lat;lon;timestamp;P1;durP1;ratioP1;P2;durP2;ratioP2
33987;SDS011;37428;53.580;-1.666;2022-12-08T00:01:08;9.05;;;1.67;;
33987;SDS011;37428;53.580;-1.666;2022-12-08T00:04:11;2.63;;;1.40;;
33987;SDS011;37428;53.580;-1.666;2022-12-08T00:10:45;4.75;;;1.52;;
33987;SDS011;37428;53.580;-1.666;2022-12-08T00:13:48;2.90;;;1.20;;
33987;SDS011;37428;53.580;-1.666;2022-12-08T00:16:51;4.13;;;1.55;;
33987;SDS011;37428;53.580;-1.666;2022-12-08T00:19:54;3.78;;;1.42;;
33987;SDS011;37428;53.580;-1.666;2022-12-08T00:26:03;3.88;;;1.60;;
33987;SDS011;37428;53.580;-1.666;2022-12-08T00:29:07;2.75;;;1.75;;
33987;SDS011;37428;53.580;-1.666;2022-12-08T00:32:10;3.40;;;1.55;;
33987;SDS011;37428;53.580;-1.666;2022-12-08T00:35:12;2.83;;;0.95;;
33987;SDS011;37428;53.580;-1.666;2022-12-08T00:38:16;3.88;;;1.35;;
33987;SDS011;37428;53.580;-1.666;2022-12-08T00:41:19;5.18;;;2.33;;
33987;SDS011;37428;53.580;-1.666;2022-12-08T00:44:43;2.05;;;1.27;;
33987;SDS011;37428;53.580;-1.666;2022-12-08T00:47:50;1.27;;;0.70;;
33987;SDS011;37428;53.580;-1.666;2022-12-08T00:54:10;3.47;;;1.50;;
33987;SDS011;37428;53.580;-1.666;2022-12-08T01:00:18;3.38;;;1.33;;
33987;SDS011;37428;53.580;-1.666;2022-12-08T01:03:21;3.10;;;0.90;;
33987;SDS011;37428;53.580;-1.666;2022-12-08T01:06:24;1.80;;;0.82;;
33987;SDS011;37428;53.580;-1.666;2022-12-08T01:09:45;4.32;;;0.88;;
33987;SDS011;37428;53.580;-1.666;2022-12-08T01:12:52;2.17;;;1.02;;
33987;SDS011;37428;53.580;-1.666;2022-12-08T01:15:55;2.17;;;0.93;;
33987;SDS011;37428;53.580;-1.666;2022-12-08T01:19:08;2.60;;;1.20;;
33987;SDS011;37428;53.580;-1.666;2022-12-08T01:22:11;3.22;;;1.30;;
33987;SDS011;37428;53.580;-1.666;2022-12-08T01:25:15;4.22;;;1.25;;
33987;SDS011;37428;53.580;-1.666;2022-12-08T01:28:23;3.85;;;1.30;;
33987;SDS011;37428;53.580;-1.666;2022-12-08T01:31:34;2.38;;;1.17;;
33987;SDS011;37428;53.580;-1.666;2022-12-08T01:34:38;2.83;;;0.68;;
33987;SDS011;37428;53.580;-1.666;2022-12-08T01:37:43;1.23;;;0.70;;
33987;SDS011;37428;53.580;-1.666;2022-12-08T01:40:51;2.20;;;0.70;;
33987;SDS011;37428;53.580;-1.666;2022-12-08T01:44:00;3.65;;;1.05;;
33987;SDS011;37428;53.580;-1.666;2022-12-08T01:47:08;2.15;;;1.05;;
33987;SDS011;37428;53.580;-1.666;2022-12-08T01:50:20;4.78;;;1.05;;
33987;SDS011;37428;53.580;-1.666;2022-12-08T01:53:31;7.13;;;1.08;;
33987;SDS011;37428;53.580;-1.666;2022-12-08T01:56:36;1.63;;;0.77;;
33987;SDS011;37428;53.580;-1.666;2022-12-08T01:59:45;1.75;;;0.70;;
33987;SDS011;37428;53.580;-1.666;2022-12-08T02:02:51;3.30;;;1.17;;
33987;SDS011;37428;53.580;-1.666;2022-12-08T02:06:01;2.33;;;0.90;;
33987;SDS011;37428;53.580;-1.666;2022-12-08T02:09:07;4.88;;;1.30;;
33987;SDS011;37428;53.580;-1.666;2022-12-08T02:12:14;3.63;;;1.25;;
33987;SDS011;37428;53.580;-1.666;2022-12-08T02:15:30;2.00;;;0.82;;
33987;SDS011;37428;53.580;-1.666;2022-12-08T02:18:40;2.55;;;0.90;;
33987;SDS011;37428;53.580;-1.666;2022-12-08T02:21:57;1.88;;;0.90;;
33987;SDS011;37428;53.580;-1.666;2022-12-08T02:25:09;4.93;;;0.95;;
33987;SDS011;37428;53.580;-1.666;2022-12-08T02:28:26;3.38;;;0.80;;
33987;SDS011;37428;53.580;-1.666;2022-12-08T02:31:50;1.77;;;0.60;;
33987;SDS011;37428;53.580;-1.666;2022-12-08T02:35:15;2.20;;;0.80;;
33987;SDS011;37428;53.580;-1.666;2022-12-08T02:38:35;5.45;;;1.00;;
33987;SDS011;37428;53.580;-1.666;2022-12-08T02:41:55;1.15;;;0.82;;
33987;SDS011;37428;53.580;-1.666;2022-12-08T02:45:10;1.55;;;1.02;;
33987;SDS011;37428;53.580;-1.666;2022-12-08T02:48:29;1.63;;;0.77;;
33987;SDS011;37428;53.580;-1.666;2022-12-08T02:51:37;4.18;;;0.85;;
33987;SDS011;37428;53.580;-1.666;2022-12-08T02:54:45;1.17;;;0.50;;
33987;SDS011;37428;53.580;-1.666;2022-12-08T03:01:33;1.52;;;0.60;;
33987;SDS011;37428;53.580;-1.666;2022-12-08T03:04:52;1.85;;;0.63;;
33987;SDS011;37428;53.580;-1.666;2022-12-08T03:08:23;2.28;;;0.50;;
33987;SDS011;37428;53.580;-1.666;2022-12-08T03:11:38;0.50;;;0.40;;
33987;SDS011;37428;53.580;-1.666;2022-12-08T03:14:52;2.57;;;0.90;;
33987;SDS011;37428;53.580;-1.666;2022-12-08T03:17:57;1.98;;;0.82;;
33987;SDS011;37428;53.580;-1.666;2022-12-08T03:21:13;2.30;;;0.90;;
33987;SDS011;37428;53.580;-1.666;2022-12-08T03:24:25;2.22;;;0.63;;
33987;SDS011;37428;53.580;-1.666;2022-12-08T03:27:28;2.30;;;0.60;;
33987;SDS011;37428;53.580;-1.666;2022-12-08T03:30:35;6.80;;;1.33;;
33987;SDS011;37428;53.580;-1.666;2022-12-08T03:33:53;2.35;;;0.77;;
33987;SDS011;37428;53.580;-1.666;2022-12-08T03:37:01;2.17;;;0.80;;
33987;SDS011;37428;53.580;-1.666;2022-12-08T03:40:08;0.95;;;0.50;;
33987;SDS011;37428;53.580;-1.666;2022-12-08T03:43:15;1.23;;;0.60;;
33987;SDS011;37428;53.580;-1.666;2022-12-08T03:46:18;1.50;;;0.60;;
33987;SDS011;37428;53.580;-1.666;2022-12-08T03:49:25;1.85;;;0.68;;
33987;SDS011;37428;53.580;-1.666;2022-12-08T03:52:35;1.80;;;0.80;;
33987;SDS011;37428;53.580;-1.666;2022-12-08T03:55:41;0.88;;;0.63;;
33987;SDS011;37428;53.580;-1.666;2022-12-08T03:58:44;0.88;;;0.60;;
33987;SDS011;37428;53.580;-1.666;2022-12-08T04:01:51;0.93;;;0.60;;
33987;SDS011;37428;53.580;-1.666;2022-12-08T04:07:56;1.35;;;0.77;;
33987;SDS011;37428;53.580;-1.666;2022-12-08T04:11:00;1.90;;;0.68;;
33987;SDS011;37428;53.580;-1.666;2022-12-08T04:14:20;2.63;;;0.75;;
33987;SDS011;37428;53.580;-1.666;2022-12-08T04:17:22;2.55;;;0.85;;
33987;SDS011;37428;53.580;-1.666;2022-12-08T04:23:34;3.03;;;0.80;;
33987;SDS011;37428;53.580;-1.666;2022-12-08T04:26:44;1.77;;;0.70;;
33987;SDS011;37428;53.580;-1.666;2022-12-08T04:29:48;3.42;;;0.80;;
33987;SDS011;37428;53.580;-1.666;2022-12-08T04:32:56;1.73;;;0.80;;
33987;SDS011;37428;53.580;-1.666;2022-12-08T04:35:58;2.05;;;1.00;;
33987;SDS011;37428;53.580;-1.666;2022-12-08T04:39:04;2.17;;;0.60;;
33987;SDS011;37428;53.580;-1.666;2022-12-08T04:45:11;1.73;;;0.65;;
33987;SDS011;37428;53.580;-1.666;2022-12-08T04:51:16;1.58;;;0.63;;
33987;SDS011;37428;53.580;-1.666;2022-12-08T04:54:20;2.65;;;0.90;;
33987;SDS011;37428;53.580;-1.666;2022-12-08T05:00:33;2.63;;;0.80;;
33987;SDS011;37428;53.580;-1.666;2022-12-08T05:03:36;2.95;;;0.98;;
33987;SDS011;37428;53.580;-1.666;2022-12-08T05:06:39;3.55;;;0.90;;
33987;SDS011;37428;53.580;-1.666;2022-12-08T05:09:42;1.50;;;0.70;;
33987;SDS011;37428;53.580;-1.666;2022-12-08T05:12:51;0.75;;;0.60;;
33987;SDS011;37428;53.580;-1.666;2022-12-08T05:15:53;3.55;;;0.77;;
33987;SDS011;37428;53.580;-1.666;2022-12-08T05:19:18;5.40;;;1.23;;
33987;SDS011;37428;53.580;-1.666;2022-12-08T05:22:26;4.18;;;0.80;;
33987;SDS011;37428;53.580;-1.666;2022-12-08T05:28:38;5.20;;;1.35;;
33987;SDS011;37428;53.580;-1.666;2022-12-08T05:31:40;3.60;;;0.93;;
33987;SDS011;37428;53.580;-1.666;2022-12-08T05:34:43;1.95;;;1.33;;
33987;SDS011;37428;53.580;-1.666;2022-12-08T05:37:50;1.80;;;0.80;;
33987;SDS011;37428;53.580;-1.666;2022-12-08T05:40:57;1.27;;;0.93;;
33987;SDS011;37428;53.580;-1.666;2022-12-08T05:44:15;2.50;;;1.00;;
33987;SDS011;37428;53.580;-1.666;2022-12-08T05:47:19;0.63;;;0.63;;
33987;SDS011;37428;53.580;-1.666;2022-12-08T05:50:22;7.82;;;2.58;;
33987;SDS011;37428;53.580;-1.666;2022-12-08T05:53:24;4.88;;;1.15;;
33987;SDS011;37428;53.580;-1.666;2022-12-08T06:00:08;1.95;;;0.60;;
33987;SDS011;37428;53.580;-1.666;2022-12-08T06:03:15;1.50;;;1.10;;
33987;SDS011;37428;53.580;-1.666;2022-12-08T06:06:24;2.10;;;0.80;;
33987;SDS011;37428;53.580;-1.666;2022-12-08T06:09:27;2.40;;;0.90;;
33987;SDS011;37428;53.580;-1.666;2022-12-08T06:12:39;2.67;;;1.05;;
33987;SDS011;37428;53.580;-1.666;2022-12-08T06:15:52;2.33;;;1.08;;
33987;SDS011;37428;53.580;-1.666;2022-12-08T06:19:06;2.10;;;1.35;;
33987;SDS011;37428;53.580;-1.666;2022-12-08T06:22:11;4.63;;;1.23;;
33987;SDS011;37428;53.580;-1.666;2022-12-08T06:28:28;4.22;;;1.05;;
33987;SDS011;37428;53.580;-1.666;2022-12-08T06:31:32;5.22;;;1.38;;
33987;SDS011;37428;53.580;-1.666;2022-12-08T06:34:37;2.08;;;1.05;;
33987;SDS011;37428;53.580;-1.666;2022-12-08T06:37:43;1.52;;;1.20;;
33987;SDS011;37428;53.580;-1.666;2022-12-08T06:44:04;3.25;;;1.10;;
33987;SDS011;37428;53.580;-1.666;2022-12-08T06:47:11;2.35;;;1.13;;
33987;SDS011;37428;53.580;-1.666;2022-12-08T06:50:16;2.15;;;1.05;;
33987;SDS011;37428;53.580;-1.666;2022-12-08T06:53:27;6.85;;;3.03;;
33987;SDS011;37428;53.580;-1.666;2022-12-08T06:57:00;3.90;;;1.10;;
33987;SDS011;37428;53.580;-1.666;2022-12-08T07:00:04;1.83;;;0.90;;
33987;SDS011;37428;53.580;-1.666;2022-12-08T07:03:16;2.67;;;0.88;;
33987;SDS011;37428;53.580;-1.666;2022-12-08T07:06:22;2.25;;;1.02;;
33987;SDS011;37428;53.580;-1.666;2022-12-08T07:09:36;2.90;;;1.27;;
33987;SDS011;37428;53.580;-1.666;2022-12-08T07:12:58;2.83;;;1.17;;
33987;SDS011;37428;53.580;-1.666;2022-12-08T07:16:04;2.50;;;0.93;;
33987;SDS011;37428;53.580;-1.666;2022-12-08T07:19:15;3.78;;;1.20;;
33987;SDS011;37428;53.580;-1.666;2022-12-08T07:22:17;1.75;;;0.82;;
33987;SDS011;37428;53.580;-1.666;2022-12-08T07:25:28;2.20;;;0.85;;
33987;SDS011;37428;53.580;-1.666;2022-12-08T07:28:38;2.17;;;1.50;;
33987;SDS011;37428;53.580;-1.666;2022-12-08T07:31:53;2.75;;;1.50;;
33987;SDS011;37428;53.580;-1.666;2022-12-08T07:38:32;2.45;;;1.60;;
33987;SDS011;37428;53.580;-1.666;2022-12-08T07:41:35;0.90;;;0.80;;
33987;SDS011;37428;53.580;-1.666;2022-12-08T07:44:47;1.80;;;1.05;;
33987;SDS011;37428;53.580;-1.666;2022-12-08T07:48:01;2.30;;;1.55;;
33987;SDS011;37428;53.580;-1.666;2022-12-08T07:51:15;6.68;;;1.23;;
33987;SDS011;37428;53.580;-1.666;2022-12-08T07:54:28;6.45;;;3.53;;
33987;SDS011;37428;53.580;-1.666;2022-12-08T07:57:32;3.72;;;2.50;;
33987;SDS011;37428;53.580;-1.666;2022-12-08T08:00:40;7.30;;;4.45;;
33987;SDS011;37428;53.580;-1.666;2022-12-08T08:04:01;2.53;;;1.92;;
33987;SDS011;37428;53.580;-1.666;2022-12-08T08:07:24;2.17;;;1.65;;
33987;SDS011;37428;53.580;-1.666;2022-12-08T08:10:44;1.30;;;1.10;;
33987;SDS011;37428;53.580;-1.666;2022-12-08T08:14:18;6.00;;;1.17;;
33987;SDS011;37428;53.580;-1.666;2022-12-08T08:17:35;1.65;;;1.13;;
33987;SDS011;37428;53.580;-1.666;2022-12-08T08:20:38;4.88;;;1.38;;
33987;SDS011;37428;53.580;-1.666;2022-12-08T08:23:46;2.22;;;1.63;;
33987;SDS011;37428;53.580;-1.666;2022-12-08T08:26:50;2.05;;;1.35;;
33987;SDS011;37428;53.580;-1.666;2022-12-08T08:29:54;4.90;;;1.55;;
33987;SDS011;37428;53.580;-1.666;2022-12-08T08:33:22;2.58;;;1.20;;
33987;SDS011;37428;53.580;-1.666;2022-12-08T08:36:28;2.83;;;0.85;;
33987;SDS011;37428;53.580;-1.666;2022-12-08T08:39:41;4.20;;;1.80;;
33987;SDS011;37428;53.580;-1.666;2022-12-08T08:42:45;3.80;;;1.42;;
33987;SDS011;37428;53.580;-1.666;2022-12-08T08:46:06;5.10;;;1.25;;
33987;SDS011;37428;53.580;-1.666;2022-12-08T08:49:28;4.90;;;1.40;;
33987;SDS011;37428;53.580;-1.666;2022-12-08T08:56:29;4.03;;;1.42;;
33987;SDS011;37428;53.580;-1.666;2022-12-08T08:59:38;3.42;;;1.30;;
33987;SDS011;37428;53.580;-1.666;2022-12-08T09:02:59;2.90;;;1.50;;
33987;SDS011;37428;53.580;-1.666;2022-12-08T09:06:18;5.00;;;1.27;;
33987;SDS011;37428;53.580;-1.666;2022-12-08T09:09:26;5.15;;;1.55;;
33987;SDS011;37428;53.580;-1.666;2022-12-08T09:19:46;3.83;;;1.92;;
33987;SDS011;37428;53.580;-1.666;2022-12-08T09:23:04;5.15;;;2.17;;
33987;SDS011;37428;53.580;-1.666;2022-12-08T09:26:12;4.68;;;2.17;;
33987;SDS011;37428;53.580;-1.666;2022-12-08T09:29:46;5.05;;;2.60;;
33987;SDS011;37428;53.580;-1.666;2022-12-08T09:33:01;6.15;;;2.80;;
33987;SDS011;37428;53.580;-1.666;2022-12-08T09:36:22;6.85;;;2.92;;
33987;SDS011;37428;53.580;-1.666;2022-12-08T09:43:15;5.17;;;2.73;;
33987;SDS011;37428;53.580;-1.666;2022-12-08T09:46:33;4.45;;;2.17;;
33987;SDS011;37428;53.580;-1.666;2022-12-08T09:49:40;3.33;;;2.05;;
33987;SDS011;37428;53.580;-1.666;2022-12-08T09:53:02;8.40;;;6.63;;
33987;SDS011;37428;53.580;-1.666;2022-12-08T09:56:11;42.88;;;27.95;;
33987;SDS011;37428;53.580;-1.666;2022-12-08T09:59:28;15.13;;;12.60;;
33987;SDS011;37428;53.580;-1.666;2022-12-08T10:02:32;17.13;;;14.55;;
33987;SDS011;37428;53.580;-1.666;2022-12-08T10:05:43;13.48;;;11.48;;
33987;SDS011;37428;53.580;-1.666;2022-12-08T10:08:51;23.30;;;19.05;;
33987;SDS011;37428;53.580;-1.666;2022-12-08T10:12:03;19.00;;;17.05;;
33987;SDS011;37428;53.580;-1.666;2022-12-08T10:15:16;10.80;;;9.18;;
33987;SDS011;37428;53.580;-1.666;2022-12-08T10:18:38;9.02;;;5.22;;
33987;SDS011;37428;53.580;-1.666;2022-12-08T10:21:43;6.18;;;3.53;;
33987;SDS011;37428;53.580;-1.666;2022-12-08T10:24:49;9.52;;;3.30;;
33987;SDS011;37428;53.580;-1.666;2022-12-08T10:27:55;5.20;;;4.47;;
33987;SDS011;37428;53.580;-1.666;2022-12-08T10:30:59;5.20;;;3.47;;
33987;SDS011;37428;53.580;-1.666;2022-12-08T10:37:16;8.85;;;4.18;;
33987;SDS011;37428;53.580;-1.666;2022-12-08T10:40:19;4.88;;;3.67;;
33987;SDS011;37428;53.580;-1.666;2022-12-08T10:43:23;4.95;;;4.43;;
33987;SDS011;37428;53.580;-1.666;2022-12-08T10:46:26;12.57;;;6.65;;
33987;SDS011;37428;53.580;-1.666;2022-12-08T10:49:30;8.13;;;3.05;;
33987;SDS011;37428;53.580;-1.666;2022-12-08T10:52:38;2.90;;;2.63;;
33987;SDS011;37428;53.580;-1.666;2022-12-08T10:55:42;4.93;;;3.00;;
33987;SDS011;37428;53.580;-1.666;2022-12-08T10:58:46;3.72;;;2.50;;
33987;SDS011;37428;53.580;-1.666;2022-12-08T11:01:49;11.77;;;3.50;;
33987;SDS011;37428;53.580;-1.666;2022-12-08T11:04:57;6.10;;;2.50;;
33987;SDS011;37428;53.580;-1.666;2022-12-08T11:08:07;3.50;;;2.05;;
33987;SDS011;37428;53.580;-1.666;2022-12-08T11:11:10;5.30;;;1.60;;
33987;SDS011;37428;53.580;-1.666;2022-12-08T11:14:14;3.80;;;1.60;;
33987;SDS011;37428;53.580;-1.666;2022-12-08T11:17:22;4.15;;;1.40;;
33987;SDS011;37428;53.580;-1.666;2022-12-08T11:20:26;4.32;;;1.27;;
33987;SDS011;37428;53.580;-1.666;2022-12-08T11:23:40;3.33;;;1.52;;
33987;SDS011;37428;53.580;-1.666;2022-12-08T11:26:46;5.75;;;1.30;;
33987;SDS011;37428;53.580;-1.666;2022-12-08T11:29:58;4.07;;;1.52;;
33987;SDS011;37428;53.580;-1.666;2022-12-08T11:33:02;2.83;;;1.50;;
33987;SDS011;37428;53.580;-1.666;2022-12-08T11:36:14;8.90;;;2.35;;
33987;SDS011;37428;53.580;-1.666;2022-12-08T11:39:21;5.63;;;1.52;;
33987;SDS011;37428;53.580;-1.666;2022-12-08T11:42:27;7.15;;;1.60;;
33987;SDS011;37428;53.580;-1.666;2022-12-08T11:45:36;4.07;;;2.38;;
33987;SDS011;37428;53.580;-1.666;2022-12-08T11:48:46;5.47;;;1.25;;
33987;SDS011;37428;53.580;-1.666;2022-12-08T11:51:53;2.15;;;1.20;;
33987;SDS011;37428;53.580;-1.666;2022-12-08T11:55:04;3.90;;;1.10;;
33987;SDS011;37428;53.580;-1.666;2022-12-08T11:58:20;4.45;;;1.10;;
33987;SDS011;37428;53.580;-1.666;2022-12-08T12:01:27;2.33;;;0.90;;
33987;SDS011;37428;53.580;-1.666;2022-12-08T12:04:30;5.85;;;1.25;;
33987;SDS011;37428;53.580;-1.666;2022-12-08T12:07:49;6.35;;;1.20;;
33987;SDS011;37428;53.580;-1.666;2022-12-08T12:11:11;5.90;;;1.30;;
33987;SDS011;37428;53.580;-1.666;2022-12-08T12:18:15;4.57;;;1.87;;
33987;SDS011;37428;53.580;-1.666;2022-12-08T12:21:25;4.38;;;1.55;;
33987;SDS011;37428;53.580;-1.666;2022-12-08T12:24:35;2.67;;;1.45;;
33987;SDS011;37428;53.580;-1.666;2022-12-08T12:27:45;3.95;;;1.80;;
33987;SDS011;37428;53.580;-1.666;2022-12-08T12:30:52;7.80;;;1.67;;
33987;SDS011;37428;53.580;-1.666;2022-12-08T12:34:03;7.45;;;1.65;;
33987;SDS011;37428;53.580;-1.666;2022-12-08T12:37:12;7.25;;;1.35;;
33987;SDS011;37428;53.580;-1.666;2022-12-08T12:40:17;2.63;;;1.17;;
33987;SDS011;37428;53.580;-1.666;2022-12-08T12:43:30;6.28;;;2.00;;
33987;SDS011;37428;53.580;-1.666;2022-12-08T12:46:51;4.28;;;0.95;;
33987;SDS011;37428;53.580;-1.666;2022-12-08T12:56:50;4.53;;;2.20;;
33987;SDS011;37428;53.580;-1.666;2022-12-08T13:00:15;5.50;;;1.88;;
33987;SDS011;37428;53.580;-1.666;2022-12-08T13:03:18;4.95;;;1.83;;
33987;SDS011;37428;53.580;-1.666;2022-12-08T13:06:21;5.75;;;1.85;;
33987;SDS011;37428;53.580;-1.666;2022-12-08T13:09:34;5.73;;;2.93;;
33987;SDS011;37428;53.580;-1.666;2022-12-08T13:12:41;3.40;;;1.88;;
33987;SDS011;37428;53.580;-1.666;2022-12-08T13:15:49;9.07;;;2.92;;
33987;SDS011;37428;53.580;-1.666;2022-12-08T13:18:55;4.40;;;2.42;;
33987;SDS011;37428;53.580;-1.666;2022-12-08T13:22:01;3.38;;;1.58;;
33987;SDS011;37428;53.580;-1.666;2022-12-08T13:28:25;5.80;;;2.00;;
33987;SDS011;37428;53.580;-1.666;2022-12-08T13:31:36;4.15;;;1.42;;
33987;SDS011;37428;53.580;-1.666;2022-12-08T13:34:41;3.53;;;1.10;;
33987;SDS011;37428;53.580;-1.666;2022-12-08T13:37:48;2.85;;;1.05;;
33987;SDS011;37428;53.580;-1.666;2022-12-08T13:40:51;6.03;;;1.27;;
33987;SDS011;37428;53.580;-1.666;2022-12-08T13:43:58;3.10;;;0.85;;
33987;SDS011;37428;53.580;-1.666;2022-12-08T13:47:08;3.60;;;1.25;;
33987;SDS011;37428;53.580;-1.666;2022-12-08T13:50:14;3.42;;;1.30;;
33987;SDS011;37428;53.580;-1.666;2022-12-08T13:53:21;5.72;;;1.23;;
33987;SDS011;37428;53.580;-1.666;2022-12-08T13:56:27;3.22;;;1.23;;
33987;SDS011;37428;53.580;-1.666;2022-12-08T13:59:31;3.80;;;1.42;;
33987;SDS011;37428;53.580;-1.666;2022-12-08T14:02:36;3.85;;;0.95;;
33987;SDS011;37428;53.580;-1.666;2022-12-08T14:05:42;2.95;;;0.95;;
33987;SDS011;37428;53.580;-1.666;2022-12-08T14:08:46;4.53;;;1.33;;
33987;SDS011;37428;53.580;-1.666;2022-12-08T14:11:54;3.80;;;2.17;;
33987;SDS011;37428;53.580;-1.666;2022-12-08T14:15:00;4.10;;;1.30;;
33987;SDS011;37428;53.580;-1.666;2022-12-08T14:18:20;4.30;;;1.60;;
33987;SDS011;37428;53.580;-1.666;2022-12-08T14:21:24;5.43;;;1.92;;
33987;SDS011;37428;53.580;-1.666;2022-12-08T14:24:29;3.97;;;1.55;;
33987;SDS011;37428;53.580;-1.666;2022-12-08T14:27:33;8.85;;;1.52;;
33987;SDS011;37428;53.580;-1.666;2022-12-08T14:30:38;3.88;;;1.30;;
33987;SDS011;37428;53.580;-1.666;2022-12-08T14:33:42;7.65;;;1.10;;
33987;SDS011;37428;53.580;-1.666;2022-12-08T14:36:44;3.90;;;1.30;;
33987;SDS011;37428;53.580;-1.666;2022-12-08T14:39:47;1.90;;;1.02;;
33987;SDS011;37428;53.580;-1.666;2022-12-08T14:42:50;4.13;;;1.40;;
33987;SDS011;37428;53.580;-1.666;2022-12-08T14:45:54;5.35;;;1.70;;
33987;SDS011;37428;53.580;-1.666;2022-12-08T14:49:02;3.33;;;1.55;;
33987;SDS011;37428;53.580;-1.666;2022-12-08T14:52:07;7.15;;;1.70;;
33987;SDS011;37428;53.580;-1.666;2022-12-08T14:55:11;2.42;;;1.30;;
33987;SDS011;37428;53.580;-1.666;2022-12-08T14:58:16;3.78;;;1.70;;
33987;SDS011;37428;53.580;-1.666;2022-12-08T15:01:21;3.67;;;1.50;;
33987;SDS011;37428;53.580;-1.666;2022-12-08T15:04:26;3.70;;;2.03;;
33987;SDS011;37428;53.580;-1.666;2022-12-08T15:07:33;8.45;;;4.28;;
33987;SDS011;37428;53.580;-1.666;2022-12-08T15:10:47;8.75;;;3.38;;
33987;SDS011;37428;53.580;-1.666;2022-12-08T15:14:25;9.80;;;3.42;;
33987;SDS011;37428;53.580;-1.666;2022-12-08T15:17:34;4.10;;;1.55;;
33987;SDS011;37428;53.580;-1.666;2022-12-08T15:20:44;5.78;;;2.35;;
33987;SDS011;37428;53.580;-1.666;2022-12-08T15:23:49;4.72;;;2.67;;
33987;SDS011;37428;53.580;-1.666;2022-12-08T15:26:51;4.78;;;2.50;;
33987;SDS011;37428;53.580;-1.666;2022-12-08T15:29:54;3.78;;;2.17;;
33987;SDS011;37428;53.580;-1.666;2022-12-08T15:32:59;3.53;;;1.75;;
33987;SDS011;37428;53.580;-1.666;2022-12-08T15:36:03;14.88;;;5.68;;
33987;SDS011;37428;53.580;-1.666;2022-12-08T15:39:06;17.65;;;8.55;;
33987;SDS011;37428;53.580;-1.666;2022-12-08T15:42:21;7.43;;;3.38;;
33987;SDS011;37428;53.580;-1.666;2022-12-08T15:45:27;5.50;;;2.80;;
33987;SDS011;37428;53.580;-1.666;2022-12-08T15:48:32;5.38;;;2.72;;
33987;SDS011;37428;53.580;-1.666;2022-12-08T15:51:36;8.85;;;3.10;;
33987;SDS011;37428;53.580;-1.666;2022-12-08T15:54:39;7.80;;;2.78;;
33987;SDS011;37428;53.580;-1.666;2022-12-08T15:57:41;6.40;;;2.10;;
33987;SDS011;37428;53.580;-1.666;2022-12-08T16:00:45;4.80;;;2.10;;
33987;SDS011;37428;53.580;-1.666;2022-12-08T16:03:47;3.85;;;2.17;;
33987;SDS011;37428;53.580;-1.666;2022-12-08T16:06:51;3.55;;;1.88;;
33987;SDS011;37428;53.580;-1.666;2022-12-08T16:09:54;6.57;;;2.53;;
33987;SDS011;37428;53.580;-1.666;2022-12-08T16:12:57;4.45;;;2.03;;
33987;SDS011;37428;53.580;-1.666;2022-12-08T16:16:17;4.70;;;2.05;;
33987;SDS011;37428;53.580;-1.666;2022-12-08T16:19:22;10.50;;;2.35;;
33987;SDS011;37428;53.580;-1.666;2022-12-08T16:22:26;5.25;;;2.20;;
33987;SDS011;37428;53.580;-1.666;2022-12-08T16:25:31;9.35;;;2.15;;
33987;SDS011;37428;53.580;-1.666;2022-12-08T16:31:35;5.37;;;2.90;;
33987;SDS011;37428;53.580;-1.666;2022-12-08T16:34:38;4.80;;;3.08;;
33987;SDS011;37428;53.580;-1.666;2022-12-08T16:37:41;9.95;;;2.90;;
33987;SDS011;37428;53.580;-1.666;2022-12-08T16:40:44;5.43;;;3.67;;
33987;SDS011;37428;53.580;-1.666;2022-12-08T16:44:04;4.05;;;2.45;;
33987;SDS011;37428;53.580;-1.666;2022-12-08T16:47:07;5.68;;;2.40;;
33987;SDS011;37428;53.580;-1.666;2022-12-08T16:50:11;7.70;;;2.85;;
33987;SDS011;37428;53.580;-1.666;2022-12-08T16:53:19;3.85;;;2.65;;
33987;SDS011;37428;53.580;-1.666;2022-12-08T16:56:22;5.35;;;2.65;;
33987;SDS011;37428;53.580;-1.666;2022-12-08T17:02:26;11.40;;;5.40;;
33987;SDS011;37428;53.580;-1.666;2022-12-08T17:05:28;7.60;;;2.85;;
33987;SDS011;37428;53.580;-1.666;2022-12-08T17:08:32;4.18;;;2.95;;
33987;SDS011;37428;53.580;-1.666;2022-12-08T17:11:35;6.30;;;3.10;;
33987;SDS011;37428;53.580;-1.666;2022-12-08T17:17:39;5.63;;;3.28;;
33987;SDS011;37428;53.580;-1.666;2022-12-08T17:20:42;7.07;;;3.78;;
33987;SDS011;37428;53.580;-1.666;2022-12-08T17:23:46;9.50;;;3.97;;
33987;SDS011;37428;53.580;-1.666;2022-12-08T17:26:48;7.72;;;4.13;;
33987;SDS011;37428;53.580;-1.666;2022-12-08T17:29:50;7.05;;;4.70;;
33987;SDS011;37428;53.580;-1.666;2022-12-08T17:32:53;6.25;;;3.72;;
33987;SDS011;37428;53.580;-1.666;2022-12-08T17:35:55;12.27;;;3.63;;
33987;SDS011;37428;53.580;-1.666;2022-12-08T17:38:59;5.25;;;2.90;;
33987;SDS011;37428;53.580;-1.666;2022-12-08T17:42:02;10.68;;;3.13;;
33987;SDS011;37428;53.580;-1.666;2022-12-08T17:45:06;5.47;;;2.88;;
33987;SDS011;37428;53.580;-1.666;2022-12-08T17:48:09;8.65;;;4.30;;
33987;SDS011;37428;53.580;-1.666;2022-12-08T17:51:12;6.35;;;3.53;;
33987;SDS011;37428;53.580;-1.666;2022-12-08T17:54:19;8.20;;;2.85;;
33987;SDS011;37428;53.580;-1.666;2022-12-08T17:57:22;5.03;;;2.65;;
33987;SDS011;37428;53.580;-1.666;2022-12-08T18:00:24;5.47;;;3.10;;
33987;SDS011;37428;53.580;-1.666;2022-12-08T18:03:27;7.03;;;3.20;;
33987;SDS011;37428;53.580;-1.666;2022-12-08T18:06:29;8.15;;;4.78;;
33987;SDS011;37428;53.580;-1.666;2022-12-08T18:09:34;6.18;;;4.10;;
33987;SDS011;37428;53.580;-1.666;2022-12-08T18:12:36;10.95;;;7.05;;
33987;SDS011;37428;53.580;-1.666;2022-12-08T18:15:38;10.65;;;5.63;;
33987;SDS011;37428;53.580;-1.666;2022-12-08T18:18:41;10.35;;;3.90;;
33987;SDS011;37428;53.580;-1.666;2022-12-08T18:21:43;7.65;;;3.45;;
33987;SDS011;37428;53.580;-1.666;2022-12-08T18:24:47;6.63;;;3.17;;
33987;SDS011;37428;53.580;-1.666;2022-12-08T18:27:50;9.45;;;3.10;;
33987;SDS011;37428;53.580;-1.666;2022-12-08T18:30:52;5.78;;;3.67;;
33987;SDS011;37428;53.580;-1.666;2022-12-08T18:33:55;6.18;;;2.65;;
33987;SDS011;37428;53.580;-1.666;2022-12-08T18:40:01;7.63;;;3.05;;
33987;SDS011;37428;53.580;-1.666;2022-12-08T18:43:04;5.57;;;3.17;;
33987;SDS011;37428;53.580;-1.666;2022-12-08T18:46:08;4.47;;;3.38;;
33987;SDS011;37428;53.580;-1.666;2022-12-08T18:49:12;8.90;;;3.90;;
33987;SDS011;37428;53.580;-1.666;2022-12-08T18:52:16;8.77;;;3.55;;
33987;SDS011;37428;53.580;-1.666;2022-12-08T18:55:20;8.85;;;4.20;;
33987;SDS011;37428;53.580;-1.666;2022-12-08T18:58:22;12.55;;;5.18;;
33987;SDS011;37428;53.580;-1.666;2022-12-08T19:01:24;7.43;;;4.10;;
33987;SDS011;37428;53.580;-1.666;2022-12-08T19:04:27;6.50;;;5.07;;
33987;SDS011;37428;53.580;-1.666;2022-12-08T19:07:32;8.07;;;4.45;;
33987;SDS011;37428;53.580;-1.666;2022-12-08T19:10:36;10.55;;;4.50;;
33987;SDS011;37428;53.580;-1.666;2022-12-08T19:13:39;10.25;;;6.07;;
33987;SDS011;37428;53.580;-1.666;2022-12-08T19:16:41;12.90;;;6.13;;
33987;SDS011;37428;53.580;-1.666;2022-12-08T19:19:44;8.70;;;4.70;;
33987;SDS011;37428;53.580;-1.666;2022-12-08T19:22:46;12.00;;;4.60;;
33987;SDS011;37428;53.580;-1.666;2022-12-08T19:25:50;9.48;;;4.82;;
33987;SDS011;37428;53.580;-1.666;2022-12-08T19:28:52;6.25;;;3.92;;
33987;SDS011;37428;53.580;-1.666;2022-12-08T19:31:55;8.70;;;4.05;;
33987;SDS011;37428;53.580;-1.666;2022-12-08T19:35:02;10.40;;;4.40;;
33987;SDS011;37428;53.580;-1.666;2022-12-08T19:38:06;6.55;;;4.00;;
33987;SDS011;37428;53.580;-1.666;2022-12-08T19:44:29;8.85;;;3.78;;
33987;SDS011;37428;53.580;-1.666;2022-12-08T19:47:49;5.30;;;3.60;;
33987;SDS011;37428;53.580;-1.666;2022-12-08T19:50:51;11.35;;;4.38;;
33987;SDS011;37428;53.580;-1.666;2022-12-08T19:56:57;5.10;;;3.05;;
33987;SDS011;37428;53.580;-1.666;2022-12-08T19:59:59;7.88;;;3.08;;
33987;SDS011;37428;53.580;-1.666;2022-12-08T20:03:02;4.43;;;3.33;;
33987;SDS011;37428;53.580;-1.666;2022-12-08T20:06:06;5.55;;;2.70;;
33987;SDS011;37428;53.580;-1.666;2022-12-08T20:09:13;3.53;;;2.30;;
33987;SDS011;37428;53.580;-1.666;2022-12-08T20:12:16;5.22;;;2.65;;